Time;durP1;ratioP1;P1;durP2;ratioP2;P2;SDS_P1;SDS_P2;PMS_P1;PMS_P2;Temp;Humidity;BMP_temperature;BMP_pressure;BME280_temperature;BME280_humidity;BME280_pressure;Samples;Min_cycle;Max_cycle;Signal;HPM_P1;HPM_P2
2022/03/07 00:00:15;;;;;;;15.82;8.38;;;;;;;-1.61;100.00;102675.41;5232709;28;20505;-81
2022/03/07 00:02:47;;;;;;;17.73;8.48;;;;;;;-1.64;100.00;102670.22;5223249;28;20021;-81
2022/03/07 00:05:18;;;;;;;17.55;8.60;;;;;;;-1.68;100.00;102672.97;5224584;28;20384;-81
2022/03/07 00:07:49;;;;;;;21.63;9.82;;;;;;;-1.71;100.00;102673.91;5224674;28;20488;-81
2022/03/07 00:10:20;;;;;;;20.23;9.10;;;;;;;-1.72;100.00;102676.59;5226110;28;20074;-81
2022/03/07 00:12:50;;;;;;;21.40;9.20;;;;;;;-1.73;100.00;102674.88;5228457;28;20384;-82
2022/03/07 00:15:21;;;;;;;19.85;8.98;;;;;;;-1.74;100.00;102674.00;5227407;28;20530;-81
2022/03/07 00:17:51;;;;;;;18.50;8.85;;;;;;;-1.75;100.00;102687.22;5228592;28;20028;-82
2022/03/07 00:20:22;;;;;;;18.42;9.20;;;;;;;-1.76;100.00;102688.09;5228537;28;20036;-82
2022/03/07 00:22:52;;;;;;;21.67;8.85;;;;;;;-1.80;100.00;102689.97;5228795;28;20388;-82
2022/03/07 00:25:22;;;;;;;23.17;9.00;;;;;;;-1.80;100.00;102689.97;5227088;28;20041;-82
2022/03/07 00:27:53;;;;;;;17.73;9.02;;;;;;;-1.80;100.00;102689.97;5228424;28;20108;-83
2022/03/07 00:30:23;;;;;;;17.27;8.00;;;;;;;-1.83;100.00;102695.31;5227497;28;20484;-83
2022/03/07 00:32:54;;;;;;;18.67;8.48;;;;;;;-1.87;100.00;102693.66;5216725;28;20487;-82
2022/03/07 00:35:24;;;;;;;18.40;8.98;;;;;;;-1.89;100.00;102690.22;5219970;28;20499;-81
2022/03/07 00:37:55;;;;;;;20.73;9.18;;;;;;;-1.90;100.00;102691.97;5226018;28;20074;-81
2022/03/07 00:40:25;;;;;;;21.00;9.48;;;;;;;-1.91;100.00;102690.25;5228510;28;20507;-81
2022/03/07 00:42:56;;;;;;;18.27;9.48;;;;;;;-1.91;100.00;102695.53;5228494;28;20392;-82
2022/03/07 00:45:26;;;;;;;19.13;8.90;;;;;;;-1.90;100.00;102694.63;5226289;28;20119;-81
2022/03/07 00:47:57;;;;;;;19.42;9.13;;;;;;;-1.92;100.00;102701.66;5227304;28;20029;-82
2022/03/07 00:50:27;;;;;;;26.83;9.93;;;;;;;-1.91;100.00;102699.91;5243133;28;20028;-81
2022/03/07 00:52:58;;;;;;;16.20;8.52;;;;;;;-1.92;100.00;102693.78;5231884;28;20083;-82
2022/03/07 00:55:28;;;;;;;19.85;9.88;;;;;;;-1.92;100.00;102700.81;5228012;28;20028;-81
2022/03/07 00:57:59;;;;;;;25.27;10.40;;;;;;;-1.93;100.00;102705.22;5227106;28;20029;-80
2022/03/07 01:00:29;;;;;;;23.23;9.35;;;;;;;-1.93;100.00;102701.72;5227054;28;20159;-81
2022/03/07 01:03:00;;;;;;;19.75;9.30;;;;;;;-1.91;100.00;102703.41;5226731;28;20079;-81
2022/03/07 01:05:30;;;;;;;19.77;9.45;;;;;;;-1.93;100.00;102709.59;5227559;28;20037;-81
2022/03/07 01:08:01;;;;;;;19.38;8.75;;;;;;;-1.95;100.00;102704.41;5227305;28;20035;-81
2022/03/07 01:10:32;;;;;;;20.85;9.45;;;;;;;-1.99;100.00;102702.75;5228278;28;20040;-82
2022/03/07 01:13:04;;;;;;;19.83;9.15;;;;;;;-2.01;100.00;102701.91;5211053;28;20456;-80
2022/03/07 01:15:35;;;;;;;20.17;10.52;;;;;;;-2.05;100.00;102700.28;5227709;28;20473;-79
2022/03/07 01:18:05;;;;;;;20.15;9.15;;;;;;;-2.11;100.00;102703.94;5227606;28;20013;-80
2022/03/07 01:20:36;;;;;;;28.55;10.70;;;;;;;-2.15;100.00;102694.41;5227064;28;20029;-78
2022/03/07 01:23:07;;;;;;;22.45;9.75;;;;;;;-2.17;100.00;102703.22;5226393;28;20159;-77
2022/03/07 01:25:39;;;;;;;20.20;10.23;;;;;;;-2.18;100.00;102698.88;5226379;28;20117;-77
2022/03/07 01:28:09;;;;;;;23.50;9.25;;;;;;;-2.20;100.00;102693.66;5225511;28;20085;-77
2022/03/07 01:30:41;;;;;;;24.83;10.10;;;;;;;-2.23;100.00;102703.38;5226777;28;20024;-77
2022/03/07 01:33:11;;;;;;;23.15;10.70;;;;;;;-2.27;100.00;102689.44;5215774;28;20082;-78
2022/03/07 01:35:42;;;;;;;28.40;10.65;;;;;;;-2.29;100.00;102699.13;5215478;28;20025;-77
2022/03/07 01:38:12;;;;;;;20.85;9.75;;;;;;;-2.34;100.00;102698.38;5226736;28;20032;-77
2022/03/07 01:40:44;;;;;;;18.52;9.38;;;;;;;-2.28;100.00;102697.38;5226425;28;20036;-77
2022/03/07 01:43:14;;;;;;;24.70;10.40;;;;;;;-2.31;100.00;102692.16;5227162;28;20032;-77
2022/03/07 01:45:44;;;;;;;20.70;10.68;;;;;;;-2.33;100.00;102683.47;5225800;28;20053;-79
2022/03/07 01:48:15;;;;;;;23.80;10.38;;;;;;;-2.38;100.00;102686.22;5227013;28;20052;-77
2022/03/07 01:50:46;;;;;;;25.27;10.07;;;;;;;-2.42;100.00;102680.16;5226232;28;20047;-77
2022/03/07 01:53:19;;;;;;;24.25;10.38;;;;;;;-2.44;100.00;102675.88;5226443;28;20029;-77
2022/03/07 01:55:50;;;;;;;28.13;10.45;;;;;;;-2.48;100.00;102674.22;5226201;28;20484;-77
2022/03/07 01:58:21;;;;;;;40.05;10.50;;;;;;;-2.51;100.00;102669.00;5226399;28;20073;-77
2022/03/07 02:00:51;;;;;;;24.77;10.50;;;;;;;-2.53;100.00;102669.06;5226073;28;20484;-77
2022/03/07 02:03:22;;;;;;;25.35;10.30;;;;;;;-2.56;100.00;102666.53;5226464;28;20496;-77
2022/03/07 02:05:53;;;;;;;20.98;10.43;;;;;;;-2.60;100.00;102664.88;5225996;28;20082;-77
2022/03/07 02:08:24;;;;;;;21.65;9.85;;;;;;;-2.62;100.00;102661.41;5226488;28;20111;-77
2022/03/07 02:10:54;;;;;;;24.15;10.77;;;;;;;-2.65;100.00;102657.09;5226281;28;20116;-77
2022/03/07 02:13:25;;;;;;;24.10;11.20;;;;;;;-2.63;100.00;102659.69;5225102;28;20029;-77
2022/03/07 02:15:57;;;;;;;26.67;11.10;;;;;;;-2.61;100.00;102657.91;5225404;28;20107;-77
2022/03/07 02:18:39;;;;;;;30.02;10.98;;;;;;;-2.58;100.00;102657.78;5226343;28;20032;-77
2022/03/07 02:21:14;;;;;;;25.73;10.85;;;;;;;-2.57;100.00;102659.53;5225875;28;20033;-77
2022/03/07 02:23:45;;;;;;;27.00;12.07;;;;;;;-2.54;100.00;102661.22;5226146;28;20146;-77
2022/03/07 02:26:36;;;;;;;24.95;11.48;;;;;;;-2.55;100.00;102660.38;5225482;28;20507;-77
2022/03/07 02:29:26;;;;;;;24.38;11.85;;;;;;;-2.54;100.00;102658.59;5225791;28;20063;-77
2022/03/07 02:31:57;;;;;;;26.17;11.32;;;;;;;-2.53;100.00;102655.06;5218859;28;20052;-77
2022/03/07 02:34:27;;;;;;;25.35;11.75;;;;;;;-2.54;100.00;102655.97;5221682;28;20076;-77
2022/03/07 02:36:58;;;;;;;29.33;11.18;;;;;;;-2.53;100.00;102658.53;5216231;28;20029;-77
2022/03/07 02:39:28;;;;;;;25.60;10.93;;;;;;;-2.53;100.00;102661.19;5226807;28;20017;-77
2022/03/07 02:41:58;;;;;;;28.45;11.77;;;;;;;-2.48;100.00;102654.03;5226187;28;20057;-77
2022/03/07 02:44:30;;;;;;;22.15;11.07;;;;;;;-2.47;100.00;102654.91;5225006;28;20125;-77
2022/03/07 02:47:00;;;;;;;27.25;11.93;;;;;;;-2.48;100.00;102661.06;5225871;28;20105;-77
2022/03/07 02:49:31;;;;;;;22.77;11.55;;;;;;;-2.52;100.00;102660.28;5225247;28;20116;-77
2022/03/07 02:52:02;;;;;;;23.83;10.57;;;;;;;-2.55;100.00;102663.00;5225974;28;20031;-77
2022/03/07 02:54:33;;;;;;;23.00;10.48;;;;;;;-2.57;100.00;102659.53;5225203;28;20469;-77
2022/03/07 02:57:06;;;;;;;23.95;11.50;;;;;;;-2.60;100.00;102662.25;5225376;28;20051;-77
2022/03/07 02:59:37;;;;;;;23.65;11.10;;;;;;;-2.63;100.00;102654.41;5225112;28;20028;-77
2022/03/07 03:02:08;;;;;;;26.98;11.63;;;;;;;-2.67;100.00;102653.63;5227217;28;20032;-77
2022/03/07 03:04:40;;;;;;;27.88;11.40;;;;;;;-2.68;100.00;102649.28;5224933;28;20104;-77
2022/03/07 03:07:11;;;;;;;22.83;10.75;;;;;;;-2.70;100.00;102647.59;5225218;28;20488;-77
2022/03/07 03:09:41;;;;;;;28.65;11.23;;;;;;;-2.73;100.00;102658.16;5225449;28;20029;-77
2022/03/07 03:12:12;;;;;;;25.85;11.48;;;;;;;-2.75;100.00;102655.59;5225167;28;20050;-77
2022/03/07 03:14:43;;;;;;;31.50;11.80;;;;;;;-2.79;100.00;102655.69;5224673;28;20036;-77
2022/03/07 03:17:13;;;;;;;25.55;11.82;;;;;;;-2.81;100.00;102652.22;5225033;28;20443;-77
2022/03/07 03:19:44;;;;;;;23.90;11.45;;;;;;;-2.84;100.00;102654.94;5224861;28;20032;-77
2022/03/07 03:22:14;;;;;;;28.75;11.70;;;;;;;-2.89;100.00;102658.53;5225062;28;20017;-77
2022/03/07 03:24:46;;;;;;;26.75;11.13;;;;;;;-2.92;100.00;102658.59;5224307;28;20435;-77
2022/03/07 03:27:16;;;;;;;31.30;12.73;;;;;;;-2.93;100.00;102659.50;5224927;28;20036;-77
2022/03/07 03:29:47;;;;;;;25.52;11.25;;;;;;;-2.94;100.00;102662.16;5225124;28;20029;-77
2022/03/07 03:32:18;;;;;;;38.50;13.48;;;;;;;-2.95;100.00;102661.31;5214836;28;20029;-77
2022/03/07 03:34:48;;;;;;;24.38;11.95;;;;;;;-2.97;100.00;102664.84;5221362;28;20055;-77
2022/03/07 03:37:19;;;;;;;24.83;12.25;;;;;;;-2.99;100.00;102667.53;5217480;28;20059;-77
2022/03/07 03:39:49;;;;;;;25.77;11.80;;;;;;;-3.00;100.00;102665.81;5225065;28;20100;-77
2022/03/07 03:42:21;;;;;;;27.70;11.65;;;;;;;-3.00;100.00;102672.81;5224680;28;20025;-77
2022/03/07 03:44:52;;;;;;;28.35;12.35;;;;;;;-3.03;100.00;102673.75;5224379;28;20397;-77
2022/03/07 03:47:22;;;;;;;26.48;11.40;;;;;;;-3.06;100.00;102676.44;5228095;28;20021;-77
2022/03/07 03:49:53;;;;;;;28.50;12.55;;;;;;;-3.07;100.00;102674.69;5229083;28;20081;-77
2022/03/07 03:52:23;;;;;;;27.00;11.48;;;;;;;-3.08;100.00;102670.34;5229570;28;20050;-77
2022/03/07 03:54:55;;;;;;;26.88;12.00;;;;;;;-3.09;100.00;102680.91;5228492;28;20447;-77
2022/03/07 03:57:26;;;;;;;26.73;12.57;;;;;;;-3.12;100.00;102676.56;5228878;28;20396;-77
2022/03/07 03:59:57;;;;;;;28.98;12.02;;;;;;;-3.14;100.00;102673.97;5227787;28;20025;-77
2022/03/07 04:02:27;;;;;;;31.75;13.25;;;;;;;-3.14;100.00;102679.22;5228875;28;20135;-77
2022/03/07 04:04:58;;;;;;;30.73;12.05;;;;;;;-3.13;100.00;102678.31;5228324;28;20068;-77
2022/03/07 04:07:29;;;;;;;32.05;13.63;;;;;;;-3.16;100.00;102673.16;5227212;28;20033;-78
2022/03/07 04:09:59;;;;;;;27.55;12.95;;;;;;;-3.16;100.00;102665.28;5228707;28;20451;-78
2022/03/07 04:12:30;;;;;;;30.58;13.30;;;;;;;-3.18;100.00;102663.56;5228480;28;20032;-77
2022/03/07 04:15:00;;;;;;;32.42;12.93;;;;;;;-3.20;100.00;102662.75;5228127;28;20049;-77
2022/03/07 04:17:31;;;;;;;43.60;14.15;;;;;;;-3.18;100.00;102660.94;5228735;28;20021;-77
2022/03/07 04:20:03;;;;;;;27.67;12.15;;;;;;;-3.20;100.00;102668.88;5228524;28;20029;-77
2022/03/07 04:22:36;;;;;;;31.73;13.55;;;;;;;-3.21;100.00;102661.91;5228431;28;20404;-77
2022/03/07 04:25:08;;;;;;;29.83;13.18;;;;;;;-3.22;100.00;102661.91;5227726;28;20393;-77
2022/03/07 04:27:38;;;;;;;30.40;12.23;;;;;;;-3.25;100.00;102660.22;5228197;28;20029;-77
2022/03/07 04:30:09;;;;;;;36.05;13.85;;;;;;;-3.25;100.00;102669.88;5228347;28;20488;-77
2022/03/07 04:32:40;;;;;;;31.50;13.93;;;;;;;-3.28;100.00;102664.69;5217944;28;20057;-80
2022/03/07 04:35:11;;;;;;;34.00;13.65;;;;;;;-3.30;100.00;102667.34;5222794;28;20108;-79
2022/03/07 04:37:42;;;;;;;31.20;14.32;;;;;;;-3.32;100.00;102669.13;5224904;28;20116;-79
2022/03/07 04:40:16;;;;;;;30.00;13.90;;;;;;;-3.33;100.00;102669.16;5229528;28;20056;-79
2022/03/07 04:42:47;;;;;;;38.15;13.85;;;;;;;-3.35;100.00;102666.59;5227880;28;20040;-79
2022/03/07 04:45:18;;;;;;;29.33;13.32;;;;;;;-3.34;100.00;102670.94;5227503;28;20021;-79
2022/03/07 04:47:49;;;;;;;36.85;14.38;;;;;;;-3.34;100.00;102667.44;5229053;28;20029;-79
2022/03/07 04:50:20;;;;;;;34.72;14.38;;;;;;;-3.36;100.00;102669.22;5228844;28;20029;-79
2022/03/07 04:52:50;;;;;;;31.38;12.30;;;;;;;-3.38;100.00;102664.00;5229204;28;20029;-79
2022/03/07 04:55:21;;;;;;;32.78;13.98;;;;;;;-3.40;100.00;102676.31;5211138;28;20025;-80
2022/03/07 04:57:52;;;;;;;31.88;13.82;;;;;;;-3.41;100.00;102672.81;5243322;28;20504;-79
2022/03/07 05:00:23;;;;;;;29.38;13.30;;;;;;;-3.43;100.00;102666.72;5228885;28;20020;-79
2022/03/07 05:02:53;;;;;;;29.15;14.10;;;;;;;-3.44;100.00;102665.00;5228320;28;20499;-80
2022/03/07 05:05:24;;;;;;;32.40;13.57;;;;;;;-3.44;100.00;102670.25;5228638;28;20087;-80
2022/03/07 05:07:54;;;;;;;30.77;13.15;;;;;;;-3.45;100.00;102673.78;5227637;28;20017;-79
2022/03/07 05:10:25;;;;;;;40.72;14.35;;;;;;;-3.46;100.00;102669.44;5227586;28;20111;-79
2022/03/07 05:12:55;;;;;;;35.85;14.18;;;;;;;-3.46;100.00;102672.06;5227499;28;20041;-79
2022/03/07 05:15:26;;;;;;;32.33;13.52;;;;;;;-3.46;100.00;102671.19;5227159;28;20032;-79
2022/03/07 05:17:57;;;;;;;32.13;14.55;;;;;;;-3.48;100.00;102671.22;5209999;28;20412;-79
2022/03/07 05:20:27;;;;;;;37.08;15.23;;;;;;;-3.49;100.00;102674.72;5227580;28;20492;-79
2022/03/07 05:22:58;;;;;;;39.95;14.50;;;;;;;-3.50;100.00;102680.03;5226489;28;20047;-78
2022/03/07 05:25:29;;;;;;;35.13;14.55;;;;;;;-3.54;100.00;102673.09;5225518;28;20032;-79
2022/03/07 05:27:59;;;;;;;33.92;13.57;;;;;;;-3.56;100.00;102675.78;5226340;28;20024;-79
2022/03/07 05:30:30;;;;;;;32.22;13.45;;;;;;;-3.55;100.00;102667.00;5227006;28;20522;-79
2022/03/07 05:33:00;;;;;;;31.42;14.18;;;;;;;-3.56;100.00;102667.03;5218486;28;20063;-79
2022/03/07 05:35:30;;;;;;;45.13;15.65;;;;;;;-3.57;100.00;102673.16;5220194;28;20029;-79
2022/03/07 05:38:01;;;;;;;32.53;14.68;;;;;;;-3.60;100.00;102668.84;5228225;28;20127;-79
2022/03/07 05:40:31;;;;;;;31.38;14.25;;;;;;;-3.60;100.00;102662.75;5227782;28;20473;-79
2022/03/07 05:43:02;;;;;;;31.85;14.82;;;;;;;-3.63;100.00;102668.03;5229270;28;20020;-79
2022/03/07 05:45:33;;;;;;;38.00;16.08;;;;;;;-3.65;100.00;102668.06;5229363;28;20104;-80
2022/03/07 05:48:03;;;;;;;37.50;15.25;;;;;;;-3.67;100.00;102668.09;5229476;28;20404;-79
2022/03/07 05:50:34;;;;;;;32.42;13.20;;;;;;;-3.71;100.00;102665.59;5235876;28;20064;-80
2022/03/07 05:53:04;;;;;;;44.10;13.40;;;;;;;-3.73;100.00;102667.34;5228520;28;20043;-79
2022/03/07 05:55:35;;;;;;;37.60;14.90;;;;;;;-3.75;100.00;102671.78;5228539;28;20025;-79
2022/03/07 05:58:05;;;;;;;35.42;15.52;;;;;;;-3.78;100.00;102674.44;5228083;28;20052;-79
2022/03/07 06:00:36;;;;;;;32.88;14.77;;;;;;;-3.83;100.00;102671.91;5228641;28;20074;-79
2022/03/07 06:03:06;;;;;;;38.85;15.52;;;;;;;-3.86;100.00;102676.38;5228886;28;20033;-78
2022/03/07 06:05:37;;;;;;;49.95;15.65;;;;;;;-3.89;100.00;102676.41;5227822;28;20029;-78
2022/03/07 06:08:08;;;;;;;31.27;14.55;;;;;;;-3.93;100.00;102676.47;5228589;28;20025;-78
2022/03/07 06:10:39;;;;;;;31.65;15.38;;;;;;;-3.96;100.00;102673.91;5230454;28;20077;-77
2022/03/07 06:13:09;;;;;;;40.85;15.55;;;;;;;-3.94;100.00;102679.13;5226350;28;20044;-76
2022/03/07 06:15:43;;;;;;;36.03;14.52;;;;;;;-3.95;100.00;102677.41;5226129;28;20052;-75
2022/03/07 06:18:14;;;;;;;39.47;14.17;;;;;;;-3.94;100.00;102672.13;5226338;28;20032;-76
2022/03/07 06:20:44;;;;;;;41.25;15.90;;;;;;;-3.91;100.00;102677.31;5226946;28;20327;-79
2022/03/07 06:23:14;;;;;;;31.27;14.73;;;;;;;-3.89;100.00;102681.66;5226393;28;20025;-76
2022/03/07 06:25:45;;;;;;;34.90;16.23;;;;;;;-3.88;100.00;102689.50;5213667;28;20159;-77
2022/03/07 06:28:16;;;;;;;38.45;14.73;;;;;;;-3.83;100.00;102692.88;5224373;28;20103;-77
2022/03/07 06:30:47;;;;;;;34.88;15.85;;;;;;;-3.73;100.00;102693.59;5216076;28;20029;-76
2022/03/07 06:33:17;;;;;;;36.67;15.05;;;;;;;-3.63;100.00;102705.63;5223348;28;20116;-75
2022/03/07 06:35:47;;;;;;;40.97;16.50;;;;;;;-3.51;100.00;102697.53;5214999;28;20110;-77
2022/03/07 06:38:19;;;;;;;34.50;15.55;;;;;;;-3.35;100.00;102695.44;5224383;28;20017;-77
2022/03/07 06:40:50;;;;;;;34.13;14.77;;;;;;;-3.17;100.00;102704.69;5224355;28;20027;-79
2022/03/07 06:43:20;;;;;;;38.13;15.75;;;;;;;-2.97;100.00;102702.47;5225764;28;20563;-78
2022/03/07 06:45:52;;;;;;;34.17;14.68;;;;;;;-2.77;100.00;102704.66;5240256;28;20033;-78
2022/03/07 06:48:22;;;;;;;33.97;14.70;;;;;;;-2.56;100.00;102705.06;5224154;28;20583;-78
2022/03/07 06:50:53;;;;;;;29.27;14.00;;;;;;;-2.37;100.00;102709.81;5227709;28;20033;-81
2022/03/07 06:53:23;;;;;;;31.45;14.70;;;;;;;-2.15;100.00;102704.06;5232021;28;20029;-80
2022/03/07 06:55:54;;;;;;;35.13;15.93;;;;;;;-1.95;100.00;102707.03;5232688;28;20033;-80
2022/03/07 06:58:24;;;;;;;33.00;15.27;;;;;;;-1.65;100.00;102701.84;5231718;28;20029;-80
2022/03/07 07:00:54;;;;;;;32.15;14.35;;;;;;;-1.17;100.00;102701.31;5232876;28;20052;-80
2022/03/07 07:03:25;;;;;;;32.88;14.13;;;;;;;-0.72;100.00;102698.19;5231657;28;20030;-80
2022/03/07 07:05:55;;;;;;;28.20;13.75;;;;;;;-0.42;100.00;102705.13;5247949;28;20029;-80
2022/03/07 07:08:26;;;;;;;29.45;13.52;;;;;;;-0.24;100.00;102695.75;5232705;28;20075;-79
2022/03/07 07:10:56;;;;;;;31.70;13.23;;;;;;;0.00;100.00;102699.34;5231474;28;20476;-80
2022/03/07 07:13:27;;;;;;;30.48;13.18;;;;;;;0.34;100.00;102711.31;5232943;28;20646;-80
2022/03/07 07:15:57;;;;;;;25.88;13.10;;;;;;;0.64;100.00;102698.78;5232866;28;20025;-80
2022/03/07 07:18:28;;;;;;;27.52;13.85;;;;;;;0.87;100.00;102708.50;5232212;28;20021;-80
2022/03/07 07:20:58;;;;;;;33.28;14.82;;;;;;;1.10;100.00;102715.53;5231256;28;20052;-80
2022/03/07 07:23:29;;;;;;;29.23;14.52;;;;;;;1.39;100.00;102723.19;5232122;28;20105;-80
2022/03/07 07:25:59;;;;;;;28.63;14.13;;;;;;;1.72;100.00;102722.75;5232023;28;20017;-80
2022/03/07 07:28:30;;;;;;;29.42;14.10;;;;;;;2.11;100.00;102721.97;5231216;28;20024;-81
2022/03/07 07:31:00;;;;;;;28.85;13.85;;;;;;;2.36;100.00;102717.38;5230682;28;20025;-81
2022/03/07 07:33:31;;;;;;;25.48;13.77;;;;;;;2.60;100.00;102715.38;5221704;28;20056;-81
2022/03/07 07:36:03;;;;;;;24.92;13.32;;;;;;;2.92;100.00;102721.88;5222302;28;20131;-81
2022/03/07 07:38:33;;;;;;;23.33;12.25;;;;;;;2.92;100.00;102721.88;5231610;28;20029;-80
2022/03/07 07:41:04;;;;;;;21.15;12.63;;;;;;;3.00;100.00;102724.16;5233724;28;20029;-79
2022/03/07 07:43:34;;;;;;;19.30;11.40;;;;;;;2.99;100.00;102725.09;5227892;28;20111;-77
2022/03/07 07:46:05;;;;;;;23.77;11.95;;;;;;;3.08;100.00;102729.97;5225687;28;20025;-80
2022/03/07 07:48:35;;;;;;;23.30;12.68;;;;;;;3.17;100.00;102731.34;5225497;28;20039;-79
2022/03/07 07:51:06;;;;;;;20.77;11.55;;;;;;;3.13;100.00;102737.72;5225317;28;20031;-79
2022/03/07 07:53:36;;;;;;;21.30;11.70;;;;;;;3.36;100.00;102734.81;5226046;28;20053;-79
2022/03/07 07:56:08;;;;;;;20.15;11.57;;;;;;;3.35;100.00;102733.97;5225790;28;20088;-79
2022/03/07 07:58:39;;;;;;;22.25;11.10;;;;;;;3.31;100.00;102735.06;5225089;28;20032;-79
2022/03/07 08:01:09;;;;;;;17.80;10.95;;;;;;;3.29;100.00;102744.88;5226134;28;20033;-79
2022/03/07 08:03:40;;;;;;;18.75;10.68;;;;;;;3.47;100.00;102740.50;5223091;28;20511;-79
2022/03/07 08:06:10;;;;;;;22.85;11.55;;;;;;;3.58;100.00;102732.88;5221692;28;20033;-79
2022/03/07 08:08:41;;;;;;;18.63;10.60;;;;;;;3.70;100.00;102743.81;5223593;28;20432;-79
2022/03/07 08:11:11;;;;;;;16.52;9.63;;;;;;;3.87;100.00;102744.69;5223720;28;20025;-79
2022/03/07 08:13:42;;;;;;;18.77;10.10;;;;;;;3.95;100.00;102746.09;5224184;28;20029;-79
2022/03/07 08:16:13;;;;;;;16.90;10.13;;;;;;;4.18;100.00;102752.91;5222674;28;20024;-80
2022/03/07 08:18:43;;;;;;;20.08;10.25;;;;;;;4.52;100.00;102744.91;5225184;28;20021;-79
2022/03/07 08:21:14;;;;;;;15.95;9.80;;;;;;;4.75;100.00;102743.69;5225441;28;20082;-79
2022/03/07 08:23:44;;;;;;;17.20;9.48;;;;;;;4.86;100.00;102749.28;5232284;28;20021;-80
2022/03/07 08:26:15;;;;;;;17.42;9.95;;;;;;;5.14;100.00;102751.28;5212328;28;20033;-80
2022/03/07 08:28:45;;;;;;;15.50;8.65;;;;;;;5.22;100.00;102752.66;5229951;28;20059;-80
2022/03/07 08:31:16;;;;;;;13.35;8.82;;;;;;;5.29;100.00;102743.41;5227785;28;20029;-79
2022/03/07 08:33:46;;;;;;;17.38;10.02;;;;;;;5.37;100.00;102746.47;5234735;28;20084;-79
2022/03/07 08:36:17;;;;;;;14.23;9.18;;;;;;;5.58;97.85;102749.75;5221501;28;20017;-79
2022/03/07 08:38:47;;;;;;;15.35;7.18;;;;;;;5.87;80.61;102751.59;5229652;28;20480;-80
2022/03/07 08:41:18;;;;;;;12.23;7.40;;;;;;;5.79;84.08;102751.19;5227521;28;20024;-79
2022/03/07 08:43:50;;;;;;;16.85;7.35;;;;;;;5.64;83.59;102750.25;5228870;28;20028;-80
2022/03/07 08:46:21;;;;;;;10.52;6.57;;;;;;;5.57;80.96;102748.00;5230350;28;20651;-80
2022/03/07 08:48:52;;;;;;;10.90;5.95;;;;;;;5.50;78.86;102752.84;5231580;28;20025;-79
2022/03/07 08:51:23;;;;;;;9.63;6.10;;;;;;;5.30;73.43;102739.81;5228934;28;20028;-79
2022/03/07 08:53:53;;;;;;;12.20;6.60;;;;;;;5.18;74.09;102741.34;5232882;28;20036;-79
2022/03/07 08:56:24;;;;;;;9.98;6.20;;;;;;;5.53;74.67;102741.19;5231791;28;20021;-79
2022/03/07 08:58:54;;;;;;;8.20;5.43;;;;;;;5.34;72.44;102738.69;5226528;28;20611;-78
2022/03/07 09:01:25;;;;;;;9.50;5.50;;;;;;;5.60;73.64;102737.19;5226207;28;20031;-78
2022/03/07 09:03:56;;;;;;;9.45;5.03;;;;;;;5.80;72.47;102723.59;5226597;28;20028;-78
2022/03/07 09:06:27;;;;;;;11.88;5.60;;;;;;;6.08;65.64;102725.53;5225318;28;20016;-78
2022/03/07 09:08:57;;;;;;;7.50;4.85;;;;;;;5.83;68.35;102728.75;5225122;28;20031;-78
2022/03/07 09:11:28;;;;;;;13.70;4.93;;;;;;;5.91;63.37;102721.19;5225857;28;20021;-78
2022/03/07 09:13:59;;;;;;;6.43;4.25;;;;;;;5.82;63.48;102727.00;5226529;28;20031;-78
2022/03/07 09:16:30;;;;;;;8.70;4.53;;;;;;;5.88;65.00;102723.16;5225507;28;20104;-78
2022/03/07 09:19:00;;;;;;;8.77;4.93;;;;;;;5.90;59.96;102713.25;5225831;28;20028;-78
2022/03/07 09:21:31;;;;;;;6.75;4.50;;;;;;;5.78;62.04;102714.84;5225627;28;20108;-78
2022/03/07 09:24:02;;;;;;;8.35;4.60;;;;;;;6.12;62.08;102712.88;5226064;28;20029;-78
2022/03/07 09:26:32;;;;;;;9.35;5.20;;;;;;;5.90;59.89;102719.44;5225491;28;20048;-78
2022/03/07 09:29:03;;;;;;;6.35;4.10;;;;;;;5.83;61.42;102712.78;5225913;28;20488;-78
2022/03/07 09:31:33;;;;;;;7.80;4.50;;;;;;;6.08;62.73;102711.34;5221582;28;20028;-78
2022/03/07 09:34:04;;;;;;;6.90;4.53;;;;;;;6.48;63.28;102700.00;5222176;28;20035;-78
2022/03/07 09:36:36;;;;;;;8.70;5.07;;;;;;;6.81;67.23;102708.63;5212293;28;20024;-78
2022/03/07 09:39:06;;;;;;;7.57;4.68;;;;;;;6.79;58.55;102706.06;5225777;28;20575;-78
2022/03/07 09:41:41;;;;;;;6.05;4.43;;;;;;;6.19;58.43;102698.25;5225474;28;20120;-78
2022/03/07 09:44:12;;;;;;;8.75;4.78;;;;;;;5.77;59.62;102702.44;5224555;28;20029;-78
2022/03/07 09:46:43;;;;;;;7.88;5.30;;;;;;;5.93;62.37;102698.00;5225665;28;20380;-78
2022/03/07 09:49:13;;;;;;;10.50;6.10;;;;;;;5.82;61.59;102697.72;5225360;28;20029;-78
2022/03/07 09:51:44;;;;;;;11.45;5.00;;;;;;;5.79;64.61;102692.59;5225352;28;20024;-78
2022/03/07 09:54:15;;;;;;;10.80;5.43;;;;;;;6.06;65.42;102694.59;5224849;28;20040;-78
2022/03/07 09:56:45;;;;;;;6.97;4.88;;;;;;;6.03;62.88;102692.97;5225404;28;20457;-77
2022/03/07 09:59:17;;;;;;;9.63;5.10;;;;;;;6.22;63.55;102685.59;5225232;28;20472;-79
2022/03/07 10:02:04;;;;;;;9.00;5.55;;;;;;;6.09;60.50;102687.28;5225150;28;20035;-79
2022/03/07 10:04:41;;;;;;;8.75;5.32;;;;;;;6.04;62.82;102681.38;5223604;28;20017;-79
2022/03/07 10:07:12;;;;;;;9.95;6.65;;;;;;;6.24;62.35;102682.81;5225066;28;20166;-78
2022/03/07 10:09:44;;;;;;;13.10;5.43;;;;;;;6.55;66.26;102665.78;5225101;28;20576;-78
2022/03/07 10:12:15;;;;;;;10.07;5.18;;;;;;;6.33;61.75;102660.09;5224962;28;20060;-80
2022/03/07 10:14:45;;;;;;;13.82;6.40;;;;;;;6.25;64.02;102665.88;5225566;28;20459;-78
2022/03/07 10:17:31;;;;;;;8.40;4.88;;;;;;;6.34;62.11;102669.78;5224816;28;20020;-78
2022/03/07 10:20:04;;;;;;;9.70;4.93;;;;;;;5.81;60.98;102666.72;5224556;28;20039;-78
2022/03/07 10:22:43;;;;;;;8.10;5.20;;;;;;;5.51;61.81;102673.84;5224785;28;20037;-80
2022/03/07 10:25:15;;;;;;;10.98;5.28;;;;;;;5.86;63.87;102653.97;5224979;28;20056;-82
2022/03/07 10:27:48;;;;;;;9.77;5.45;;;;;;;5.97;62.85;102651.56;5223603;28;20038;-78
2022/03/07 10:30:22;;;;;;;8.23;5.10;;;;;;;6.32;65.75;102640.53;5224964;28;20393;-78
2022/03/07 10:33:05;;;;;;;13.30;5.25;;;;;;;6.33;63.11;102644.09;5212822;28;20115;-78
2022/03/07 10:35:38;;;;;;;7.55;4.68;;;;;;;6.24;63.88;102640.19;5228958;28;20061;-78
2022/03/07 10:38:12;;;;;;;10.13;5.25;;;;;;;6.06;62.26;102634.16;5224528;28;20028;-78
2022/03/07 10:40:47;;;;;;;8.15;5.18;;;;;;;5.94;64.07;102643.75;5224448;28;20480;-78
2022/03/07 10:43:19;;;;;;;7.60;5.07;;;;;;;5.91;63.23;102637.72;5225186;28;20024;-78
2022/03/07 10:46:01;;;;;;;8.43;4.45;;;;;;;5.86;62.08;102640.66;5224197;28;20485;-78
2022/03/07 10:48:41;;;;;;;6.43;4.90;;;;;;;5.90;63.30;102641.34;5223985;28;20084;-78
2022/03/07 10:51:16;;;;;;;9.27;4.78;;;;;;;5.88;64.45;102637.91;5223845;28;20112;-78
2022/03/07 10:53:48;;;;;;;7.88;5.13;;;;;;;6.17;66.50;102633.50;5224292;28;20033;-78
2022/03/07 10:56:21;;;;;;;9.00;4.80;;;;;;;6.32;64.86;102629.03;5223002;28;20025;-78
2022/03/07 10:58:54;;;;;;;8.98;4.78;;;;;;;6.05;63.54;102623.59;5224342;28;20063;-78
2022/03/07 11:01:28;;;;;;;9.80;4.70;;;;;;;5.66;64.63;102625.00;5225082;28;20469;-78
2022/03/07 11:03:59;;;;;;;9.90;5.23;;;;;;;5.88;66.46;102606.81;5226479;28;20032;-77
2022/03/07 11:06:30;;;;;;;6.47;4.50;;;;;;;5.67;61.33;102618.72;5229685;28;20044;-77
2022/03/07 11:09:00;;;;;;;7.03;4.68;;;;;;;5.69;65.42;102622.19;5231367;28;20032;-78
2022/03/07 11:11:32;;;;;;;11.43;5.55;;;;;;;5.67;61.99;102619.59;5226532;28;20083;-77
2022/03/07 11:14:04;;;;;;;8.57;5.18;;;;;;;5.62;61.71;102611.03;5224372;28;20167;-78
2022/03/07 11:16:35;;;;;;;10.55;5.22;;;;;;;5.54;60.89;102612.44;5222319;28;20021;-78
2022/03/07 11:19:07;;;;;;;9.77;5.60;;;;;;;5.65;62.70;102607.31;5223985;28;20041;-78
2022/03/07 11:21:41;;;;;;;10.27;5.50;;;;;;;5.43;64.63;102605.94;5223506;28;20148;-78
2022/03/07 11:24:12;;;;;;;12.32;5.13;;;;;;;5.48;65.40;102605.66;5223209;28;20024;-78
2022/03/07 11:26:43;;;;;;;7.65;5.32;;;;;;;5.72;63.95;102606.88;5223886;28;20493;-78
2022/03/07 11:29:15;;;;;;;8.40;5.00;;;;;;;5.81;60.67;102600.13;5223487;28;20027;-78